createdAt,value
2022-10-28T00:06:06.013Z,22.02
2022-10-28T00:08:33.573Z,22.40
2022-10-28T00:11:04.627Z,21.75
2022-10-28T00:13:31.598Z,20.70
2022-10-28T00:16:15.101Z,21.95
2022-10-28T00:18:42.687Z,20.83
2022-10-28T00:21:14.681Z,22.63
2022-10-28T00:23:42.193Z,20.95
2022-10-28T00:26:13.007Z,19.92
2022-10-28T00:28:44.305Z,20.83
2022-10-28T00:31:12.999Z,22.52
2022-10-28T00:33:40.697Z,22.40
2022-10-28T00:36:34.562Z,33.95
2022-10-28T00:39:04.408Z,25.35
2022-10-28T00:41:35.105Z,21.70
2022-10-28T00:44:23.744Z,20.83
2022-10-28T00:46:53.402Z,19.35
2022-10-28T00:49:34.071Z,20.33
2022-10-28T00:52:07.989Z,21.40
2022-10-28T00:54:35.849Z,20.52
2022-10-28T00:57:06.079Z,21.90
2022-10-28T00:59:36.124Z,21.50
2022-10-28T01:02:05.284Z,23.88
2022-10-28T01:04:32.736Z,22.75
2022-10-28T01:07:01.394Z,23.25
2022-10-28T01:09:28.307Z,21.92
2022-10-28T01:12:00.445Z,22.95
2022-10-28T01:14:50.927Z,22.42
2022-10-28T01:17:29.667Z,20.25
2022-10-28T01:20:27.607Z,22.02
2022-10-28T01:23:01.184Z,22.23
2022-10-28T01:26:06.551Z,21.52
2022-10-28T01:29:00.692Z,21.13
2022-10-28T01:31:33.471Z,22.20
2022-10-28T01:34:09.166Z,22.60
2022-10-28T01:36:43.186Z,22.92
2022-10-28T01:39:23.096Z,21.48
2022-10-28T01:42:12.119Z,20.98
2022-10-28T01:44:52.873Z,21.98
2022-10-28T01:47:27.329Z,22.63
2022-10-28T01:50:08.120Z,21.50
2022-10-28T01:52:35.832Z,21.15
2022-10-28T01:55:07.986Z,22.60
2022-10-28T01:57:38.461Z,22.77
2022-10-28T02:00:06.161Z,24.35
2022-10-28T02:02:36.708Z,23.52
2022-10-28T02:05:25.095Z,23.60
2022-10-28T02:07:57.053Z,22.23
2022-10-28T02:10:34.073Z,24.85
2022-10-28T02:13:06.441Z,23.40
2022-10-28T02:16:06.274Z,23.17
2022-10-28T02:18:47.374Z,22.42
2022-10-28T02:21:30.378Z,22.42
2022-10-28T02:24:02.120Z,22.40
2022-10-28T02:26:35.477Z,22.83
2022-10-28T02:29:13.557Z,21.73
2022-10-28T02:31:45.714Z,21.88
2022-10-28T02:34:18.379Z,22.20
2022-10-28T02:36:51.272Z,21.70
2022-10-28T02:39:25.423Z,22.42
2022-10-28T02:41:58.466Z,21.65
2022-10-28T02:44:31.290Z,21.35
2022-10-28T02:47:02.370Z,20.63
2022-10-28T02:49:33.477Z,21.40
2022-10-28T02:52:04.477Z,21.50
2022-10-28T02:54:54.385Z,22.67
2022-10-28T02:57:25.440Z,21.70
2022-10-28T03:00:02.003Z,21.85
2022-10-28T03:02:29.620Z,20.38
2022-10-28T03:04:56.519Z,20.45
2022-10-28T03:07:23.576Z,19.55
2022-10-28T03:09:51.257Z,19.50
2022-10-28T03:12:18.140Z,19.02
2022-10-28T03:14:45.869Z,20.60
2022-10-28T03:17:12.629Z,20.58
2022-10-28T03:19:39.514Z,21.30
2022-10-28T03:22:06.192Z,21.80
2022-10-28T03:24:33.327Z,23.05
2022-10-28T03:27:00.171Z,24.13
2022-10-28T03:29:27.090Z,22.35
2022-10-28T03:31:53.784Z,21.42
2022-10-28T03:34:20.685Z,22.70
2022-10-28T03:36:47.404Z,22.80
2022-10-28T03:39:14.525Z,22.45
2022-10-28T03:41:41.238Z,22.25
2022-10-28T03:44:08.163Z,23.50
2022-10-28T03:46:36.105Z,22.58
2022-10-28T03:49:04.213Z,21.20
2022-10-28T03:51:30.937Z,22.23
2022-10-28T03:53:57.905Z,20.30
2022-10-28T03:56:24.975Z,22.13
2022-10-28T04:01:19.742Z,21.10
2022-10-28T04:03:46.686Z,20.33
2022-10-28T04:06:14.482Z,20.40
2022-10-28T04:08:41.438Z,19.25
2022-10-28T04:11:08.202Z,21.30
2022-10-28T04:13:35.452Z,20.42
2022-10-28T04:16:02.182Z,21.38
2022-10-28T04:18:29.124Z,21.20
2022-10-28T04:20:55.825Z,21.83
2022-10-28T04:23:22.797Z,20.17
2022-10-28T04:25:54.249Z,19.42
2022-10-28T04:28:24.307Z,19.67
2022-10-28T04:30:51.749Z,18.38
2022-10-28T04:33:21.386Z,19.30
2022-10-28T04:35:52.033Z,18.75
2022-10-28T04:38:18.929Z,17.52
2022-10-28T04:40:51.460Z,17.48
2022-10-28T04:43:18.458Z,19.27
2022-10-28T04:45:46.810Z,19.75
2022-10-28T04:48:13.927Z,18.88
2022-10-28T04:50:41.067Z,19.60
2022-10-28T04:53:07.956Z,18.23
2022-10-28T04:55:34.800Z,24.55
2022-10-28T04:58:02.096Z,20.92
2022-10-28T05:00:29.995Z,16.65
2022-10-28T05:02:57.324Z,18.27
2022-10-28T05:05:24.482Z,20.52
2022-10-28T05:07:51.712Z,21.27
2022-10-28T05:10:18.622Z,18.42
2022-10-28T05:12:46.005Z,21.02
2022-10-28T05:15:15.123Z,23.05
2022-10-28T05:17:47.326Z,19.95
2022-10-28T05:20:17.028Z,19.13
2022-10-28T05:22:53.070Z,19.08
2022-10-28T05:25:21.053Z,18.42
2022-10-28T05:27:48.192Z,18.65
2022-10-28T05:30:15.581Z,19.95
2022-10-28T05:32:42.581Z,20.17
2022-10-28T05:35:10.229Z,19.23
2022-10-28T05:37:37.664Z,21.90
2022-10-28T05:40:05.042Z,20.13
2022-10-28T05:42:31.920Z,18.48
2022-10-28T05:44:58.870Z,17.70
2022-10-28T05:47:25.798Z,18.33
2022-10-28T05:49:52.627Z,17.40
2022-10-28T05:52:19.498Z,18.10
2022-10-28T14:42:22.755Z,5.45
2022-10-28T14:45:22.269Z,5.40
2022-10-28T14:48:01.183Z,69.25
2022-10-28T14:52:18.871Z,6.97
2022-10-28T14:54:56.190Z,7.25
2022-10-28T14:57:33.861Z,7.95
2022-10-28T15:00:06.724Z,9.15
2022-10-28T15:02:36.575Z,12.00
2022-10-28T15:05:12.737Z,12.00
2022-10-28T15:07:41.086Z,11.18
2022-10-28T15:10:31.452Z,13.82
2022-10-28T15:12:58.868Z,15.68
2022-10-28T15:15:27.019Z,24.17
2022-10-28T15:17:54.696Z,16.80
2022-10-28T15:20:34.387Z,13.07
2022-10-28T15:23:24.643Z,10.65
2022-10-28T15:26:09.827Z,12.85
2022-10-28T15:28:37.927Z,14.88
2022-10-28T15:31:05.016Z,12.73
2022-10-28T15:33:36.992Z,13.00
2022-10-28T15:36:08.278Z,11.40
2022-10-28T15:38:38.228Z,13.25
2022-10-28T15:41:23.015Z,12.52
2022-10-28T15:44:01.071Z,15.55
2022-10-28T15:46:30.032Z,11.98
2022-10-28T15:49:02.096Z,15.15
2022-10-28T15:51:29.082Z,15.68
2022-10-28T15:54:18.474Z,7.43
2022-10-28T15:56:56.447Z,11.35
2022-10-28T15:59:25.131Z,9.45
2022-10-28T16:01:55.942Z,7.50
2022-10-28T16:04:23.173Z,7.70
2022-10-28T16:06:53.111Z,7.38
2022-10-28T16:09:29.623Z,8.55
2022-10-28T16:11:59.140Z,8.23
2022-10-28T16:14:42.160Z,10.45
2022-10-28T16:17:19.514Z,9.90
2022-10-28T16:19:52.337Z,10.10
2022-10-28T16:22:19.905Z,8.38
2022-10-28T16:24:46.696Z,9.13
2022-10-28T16:27:22.449Z,9.15
2022-10-28T16:29:50.219Z,7.85
2022-10-28T16:32:23.465Z,8.57
2022-10-28T16:34:50.243Z,8.10
2022-10-28T16:37:24.105Z,8.10
2022-10-28T16:39:51.078Z,8.60
2022-10-28T16:42:19.362Z,9.75
2022-10-28T16:44:46.260Z,11.07
2022-10-28T16:47:15.603Z,9.23
2022-10-28T16:49:43.325Z,9.18
2022-10-28T16:52:16.095Z,8.77
2022-10-28T16:54:42.962Z,9.63
2022-10-28T16:57:09.928Z,11.30
2022-10-28T16:59:36.763Z,13.82
2022-10-28T17:02:22.281Z,12.43
2022-10-28T17:04:49.124Z,13.15
2022-10-28T17:07:17.645Z,10.65
2022-10-28T17:09:45.035Z,12.43
2022-10-28T17:12:17.460Z,11.10
2022-10-28T17:14:44.463Z,10.65
2022-10-28T17:17:11.758Z,11.30
2022-10-28T17:19:39.433Z,12.48
2022-10-28T17:22:09.313Z,10.73
2022-10-28T17:24:37.263Z,9.93
2022-10-28T17:27:05.482Z,10.55
2022-10-28T17:29:32.210Z,9.27
2022-10-28T17:31:59.133Z,12.20
2022-10-28T17:34:25.869Z,10.05
2022-10-28T17:36:52.964Z,11.68
2022-10-28T17:39:25.631Z,13.23
2022-10-28T17:41:53.007Z,14.10
2022-10-28T17:44:19.818Z,13.15
2022-10-28T17:46:51.115Z,12.68
2022-10-28T17:49:18.277Z,11.73
2022-10-28T17:51:45.293Z,15.80
2022-10-28T17:54:12.171Z,11.73
2022-10-28T17:56:42.132Z,14.60
2022-10-28T17:59:09.410Z,11.20
2022-10-28T18:01:36.642Z,9.05
2022-10-28T18:04:04.505Z,9.43
2022-10-28T18:06:32.164Z,10.45
2022-10-28T18:08:58.968Z,9.10
2022-10-28T18:11:27.555Z,9.35
2022-10-28T18:13:56.277Z,10.63
2022-10-28T18:16:27.594Z,10.43
2022-10-28T18:18:55.466Z,10.82
2022-10-28T18:21:24.708Z,12.52
2022-10-28T18:23:52.883Z,9.35
2022-10-28T18:26:21.169Z,8.55
2022-10-28T18:28:49.169Z,10.02
2022-10-28T18:31:18.766Z,11.57
2022-10-28T18:33:46.932Z,11.02
2022-10-28T18:36:17.544Z,13.50
2022-10-28T18:38:44.598Z,12.07
2022-10-28T18:41:13.517Z,11.80
2022-10-28T18:43:40.432Z,13.45
2022-10-28T18:46:07.927Z,17.17
2022-10-28T18:48:35.390Z,13.85
2022-10-28T18:51:11.219Z,11.07
2022-10-28T18:53:44.216Z,10.30
2022-10-28T18:58:42.666Z,11.27
2022-10-28T19:01:12.367Z,9.68
2022-10-28T19:03:40.137Z,9.18
2022-10-28T19:06:10.844Z,8.65
2022-10-28T19:08:38.702Z,9.45
2022-10-28T19:11:06.651Z,10.43
2022-10-28T19:13:41.908Z,9.35
2022-10-28T19:16:09.246Z,11.52
2022-10-28T19:18:39.148Z,9.57
2022-10-28T19:21:10.638Z,15.10
2022-10-28T19:23:40.751Z,12.35
2022-10-28T19:26:08.967Z,11.52
2022-10-28T19:28:39.281Z,11.00
2022-10-28T19:31:09.259Z,11.55
2022-10-28T19:33:40.158Z,10.30
2022-10-28T19:36:19.976Z,11.57
2022-10-28T19:38:54.369Z,11.95
2022-10-28T19:41:24.196Z,10.73
2022-10-28T19:43:58.492Z,10.93
2022-10-28T19:46:30.489Z,18.17
2022-10-28T19:48:59.338Z,10.80
2022-10-28T19:51:28.443Z,9.77
2022-10-28T19:54:00.446Z,10.00
2022-10-28T19:56:29.733Z,10.02
2022-10-28T19:58:59.197Z,10.38
2022-10-28T20:01:28.839Z,9.38
2022-10-28T20:03:56.694Z,9.57
2022-10-28T20:06:25.799Z,9.40
2022-10-28T20:08:53.151Z,9.48
2022-10-28T20:11:25.785Z,10.23
2022-10-28T20:14:00.891Z,9.88
2022-10-28T20:16:28.347Z,10.52
2022-10-28T20:18:56.162Z,18.25
2022-10-28T20:21:28.679Z,15.55
2022-10-28T20:26:28.785Z,8.95
2022-10-28T20:28:56.406Z,9.75
2022-10-28T20:31:26.127Z,8.18
2022-10-28T20:33:55.399Z,9.88
2022-10-28T20:36:31.004Z,9.95
2022-10-28T20:38:59.888Z,8.98
2022-10-28T20:41:29.630Z,9.10
2022-10-28T20:43:56.877Z,10.75
2022-10-28T20:46:25.647Z,10.27
2022-10-28T20:48:54.286Z,10.80
2022-10-28T20:51:22.281Z,10.90
2022-10-28T20:53:49.018Z,12.50
2022-10-28T20:56:23.825Z,11.73
2022-10-28T20:58:51.635Z,11.40
2022-10-28T21:01:25.121Z,11.55
2022-10-28T21:03:56.985Z,9.63
2022-10-28T21:06:24.398Z,10.85
2022-10-28T21:08:51.778Z,10.68
2022-10-28T21:11:18.844Z,10.18
2022-10-28T21:13:51.852Z,9.75
2022-10-28T21:16:20.043Z,9.55
2022-10-28T21:18:48.133Z,9.43
2022-10-28T21:21:15.348Z,9.65
2022-10-28T21:23:42.176Z,9.23
2022-10-28T21:26:11.976Z,9.07
2022-10-28T21:28:41.525Z,10.20
2022-10-28T21:31:09.822Z,9.98
2022-10-28T21:33:37.833Z,8.45
2022-10-28T21:36:07.905Z,11.48
2022-10-28T21:38:36.102Z,9.80
2022-10-28T21:41:07.461Z,9.30
2022-10-28T21:43:36.452Z,10.35
2022-10-28T21:46:04.490Z,9.30
2022-10-28T21:48:33.123Z,10.50
2022-10-28T21:51:01.915Z,10.07
2022-10-28T21:53:32.533Z,10.30
2022-10-28T21:56:06.605Z,11.05
2022-10-28T21:58:36.432Z,11.05
2022-10-28T22:01:08.947Z,10.63
2022-10-28T22:03:36.111Z,11.27
2022-10-28T22:06:03.218Z,10.98
2022-10-28T22:08:30.571Z,10.93
2022-10-28T22:11:02.276Z,10.82
2022-10-28T22:13:29.267Z,10.65
2022-10-28T22:16:00.625Z,10.90
2022-10-28T22:18:29.030Z,10.95
2022-10-28T22:20:56.775Z,11.57
2022-10-28T22:23:23.723Z,10.18
2022-10-28T22:25:50.407Z,10.65
2022-10-28T22:28:17.458Z,11.50
2022-10-28T22:30:44.184Z,11.13
2022-10-28T22:33:10.957Z,9.93
2022-10-28T22:35:37.974Z,10.70
2022-10-28T22:38:04.720Z,10.60
2022-10-28T22:40:31.378Z,10.65
2022-10-28T22:42:58.443Z,10.63
2022-10-28T22:45:25.125Z,11.65
2022-10-28T22:47:52.223Z,10.55
2022-10-28T22:50:19.118Z,11.52
2022-10-28T22:52:46.100Z,11.70
2022-10-28T22:55:12.879Z,10.70
2022-10-28T22:57:39.835Z,10.55
2022-10-28T23:00:07.377Z,11.00
2022-10-28T23:02:34.190Z,11.18
2022-10-28T23:05:01.254Z,10.80
2022-10-28T23:07:28.011Z,10.65
2022-10-28T23:09:54.751Z,9.27
2022-10-28T23:12:21.645Z,10.90
2022-10-28T23:14:48.479Z,10.50
2022-10-28T23:17:15.378Z,10.13
2022-10-28T23:19:42.066Z,10.07
2022-10-28T23:22:08.773Z,10.73
2022-10-28T23:24:35.775Z,10.57
2022-10-28T23:27:02.496Z,10.15
2022-10-28T23:29:29.229Z,11.20
2022-10-28T23:31:56.223Z,9.82
2022-10-28T23:34:22.967Z,9.82
2022-10-28T23:36:54.024Z,9.85
2022-10-28T23:39:22.053Z,9.73
2022-10-28T23:41:49.222Z,10.07
2022-10-28T23:44:16.095Z,10.48
2022-10-28T23:46:43.070Z,9.98
2022-10-28T23:49:09.771Z,10.88
2022-10-28T23:51:36.474Z,9.98
2022-10-28T23:54:03.684Z,10.18
2022-10-28T23:56:30.997Z,9.20
2022-10-28T23:58:57.808Z,9.88
